createdAt,value
2022-10-01T00:02:29.719Z,10.73
2022-10-01T00:05:31.327Z,11.30
2022-10-01T00:08:33.363Z,9.38
2022-10-01T00:11:35.447Z,7.68
2022-10-01T00:14:39.076Z,7.70
2022-10-01T00:17:44.777Z,10.13
2022-10-01T00:20:46.409Z,8.80
2022-10-01T00:23:53.204Z,9.48
2022-10-01T00:26:54.780Z,7.25
2022-10-01T00:29:56.758Z,8.15
2022-10-01T00:32:58.453Z,8.38
2022-10-01T00:36:00.028Z,8.20
2022-10-01T00:39:02.163Z,8.43
2022-10-01T00:42:16.897Z,9.25
2022-10-01T00:45:18.654Z,7.22
2022-10-01T00:48:22.609Z,7.80
2022-10-01T00:51:29.637Z,8.10
2022-10-01T00:54:37.560Z,8.57
2022-10-01T00:57:40.612Z,13.45
2022-10-01T01:00:43.075Z,6.40
2022-10-01T01:03:44.776Z,9.07
2022-10-01T01:06:57.936Z,8.68
2022-10-01T01:10:01.764Z,8.43
2022-10-01T01:13:21.724Z,11.35
2022-10-01T01:16:33.953Z,7.00
2022-10-01T01:19:38.221Z,9.40
2022-10-01T01:22:50.750Z,7.90
2022-10-01T01:25:57.845Z,7.05
2022-10-01T01:29:10.668Z,6.65
2022-10-01T01:32:19.191Z,8.00
2022-10-01T01:35:27.200Z,7.63
2022-10-01T01:38:33.158Z,8.55
2022-10-01T01:41:38.897Z,8.27
2022-10-01T01:44:45.832Z,7.72
2022-10-01T01:47:51.396Z,6.13
2022-10-01T01:51:36.396Z,7.18
2022-10-01T01:54:38.606Z,8.05
2022-10-01T01:57:42.390Z,6.10
2022-10-01T02:00:44.543Z,10.68
2022-10-01T02:03:49.226Z,7.13
2022-10-01T02:07:08.785Z,7.07
2022-10-01T02:10:22.962Z,8.30
2022-10-01T02:14:04.289Z,6.68
2022-10-01T02:17:21.045Z,6.93
2022-10-01T02:20:36.098Z,7.53
2022-10-01T02:23:49.553Z,7.30
2022-10-01T02:26:53.524Z,9.07
2022-10-01T02:29:58.629Z,6.15
2022-10-01T02:33:04.049Z,10.15
2022-10-01T02:36:09.670Z,8.68
2022-10-01T02:39:14.345Z,6.72
2022-10-01T02:42:16.833Z,6.97
2022-10-01T02:45:25.816Z,8.10
2022-10-01T02:48:27.841Z,7.10
2022-10-01T02:51:59.154Z,10.48
2022-10-01T02:55:07.216Z,6.72
2022-10-01T02:58:09.143Z,5.40
2022-10-01T03:01:10.834Z,5.93
2022-10-01T03:04:13.319Z,5.82
2022-10-01T03:07:15.980Z,7.60
2022-10-01T03:10:17.711Z,5.72
2022-10-01T03:13:22.019Z,5.75
2022-10-01T03:16:23.813Z,5.25
2022-10-01T03:19:25.680Z,4.78
2022-10-01T03:22:27.334Z,4.47
2022-10-01T03:25:29.320Z,5.20
2022-10-01T03:28:30.971Z,6.18
2022-10-01T03:31:33.441Z,8.68
2022-10-01T03:34:35.267Z,5.82
2022-10-01T03:37:36.871Z,7.38
2022-10-01T03:40:39.085Z,5.57
2022-10-01T03:43:40.837Z,5.07
2022-10-01T03:46:42.485Z,5.10
2022-10-01T03:49:44.106Z,6.35
2022-10-01T03:52:46.090Z,4.93
2022-10-01T03:55:48.076Z,7.22
2022-10-01T03:58:50.124Z,5.72
2022-10-01T04:01:51.853Z,6.97
2022-10-01T04:04:53.531Z,6.50
2022-10-01T04:07:55.153Z,5.55
2022-10-01T04:10:56.775Z,7.95
2022-10-01T04:13:58.401Z,6.25
2022-10-01T04:17:00.346Z,6.45
2022-10-01T04:20:02.269Z,7.30
2022-10-01T04:23:06.543Z,5.93
2022-10-01T04:26:08.623Z,8.50
2022-10-01T04:29:10.244Z,8.13
2022-10-01T04:32:11.850Z,6.03
2022-10-01T04:35:13.754Z,5.85
2022-10-01T04:38:16.974Z,6.97
2022-10-01T04:41:18.895Z,6.80
2022-10-01T04:44:20.843Z,8.45
2022-10-01T04:47:22.522Z,7.68
2022-10-01T04:50:26.264Z,9.10
2022-10-01T04:53:27.892Z,7.07
2022-10-01T04:56:29.678Z,7.68
2022-10-01T04:59:31.990Z,6.95
2022-10-01T05:02:34.606Z,8.98
2022-10-01T05:05:37.299Z,5.70
2022-10-01T05:08:39.070Z,6.45
2022-10-01T05:11:41.748Z,6.82
2022-10-01T05:14:43.297Z,8.50
2022-10-01T05:17:47.786Z,7.65
2022-10-01T05:20:49.395Z,6.55
2022-10-01T05:23:51.216Z,6.53
2022-10-01T05:26:54.290Z,7.53
2022-10-01T05:29:56.891Z,7.25
2022-10-01T05:33:01.225Z,7.55
2022-10-01T05:36:06.736Z,8.30
2022-10-01T05:39:08.366Z,6.63
2022-10-01T05:42:09.992Z,6.00
2022-10-01T05:45:11.631Z,5.45
2022-10-01T05:48:13.353Z,9.00
2022-10-01T05:51:16.136Z,6.78
2022-10-01T05:54:20.773Z,6.57
2022-10-01T05:57:22.387Z,5.10
2022-10-01T06:00:24.549Z,6.78
2022-10-01T06:03:28.870Z,5.32
2022-10-01T06:06:30.571Z,6.10
2022-10-01T06:09:32.167Z,5.80
2022-10-01T06:12:34.359Z,5.85
2022-10-01T06:15:38.711Z,7.20
2022-10-01T06:18:42.119Z,5.45
2022-10-01T06:24:45.498Z,5.63
2022-10-01T06:27:58.080Z,5.68
2022-10-01T06:31:03.965Z,5.30
2022-10-01T06:34:05.672Z,4.90
2022-10-01T06:37:07.291Z,5.15
2022-10-01T06:40:09.450Z,5.47
2022-10-01T06:43:11.079Z,4.32
2022-10-01T06:46:12.954Z,13.00
2022-10-01T06:49:15.014Z,4.13
2022-10-01T06:52:35.307Z,3.92
2022-10-01T06:55:37.504Z,4.07
2022-10-01T06:58:39.129Z,4.00
2022-10-01T07:01:41.109Z,4.95
2022-10-01T07:04:42.823Z,3.65
2022-10-01T07:07:45.133Z,5.30
2022-10-01T07:10:47.088Z,3.90
2022-10-01T07:13:54.330Z,3.63
2022-10-01T07:16:56.543Z,4.38
2022-10-01T07:19:58.917Z,2.95
2022-10-01T07:23:01.010Z,3.05
2022-10-01T07:26:10.166Z,3.95
2022-10-01T07:29:12.241Z,3.97
2022-10-01T07:32:17.590Z,4.70
2022-10-01T07:35:21.145Z,3.25
2022-10-01T07:38:24.939Z,2.83
2022-10-01T07:41:26.823Z,4.07
2022-10-01T07:44:29.463Z,4.22
2022-10-01T07:47:31.384Z,2.95
2022-10-01T07:50:33.632Z,3.80
2022-10-01T07:53:35.491Z,5.18
2022-10-01T07:56:37.403Z,4.25
2022-10-01T07:59:40.418Z,3.42
2022-10-01T08:02:47.052Z,3.20
2022-10-01T08:05:49.604Z,4.10
2022-10-01T08:08:51.484Z,3.55
2022-10-01T08:11:53.384Z,3.85
2022-10-01T08:14:55.970Z,2.90
2022-10-01T08:18:04.162Z,3.30
2022-10-01T08:21:07.173Z,2.10
2022-10-01T08:24:09.470Z,2.55
2022-10-01T08:27:11.570Z,2.88
2022-10-01T08:30:13.423Z,3.22
2022-10-01T08:33:15.318Z,2.55
2022-10-01T08:36:17.601Z,2.50
2022-10-01T08:39:20.449Z,3.30
2022-10-01T08:42:34.336Z,1.95
2022-10-01T08:45:49.222Z,9.73
2022-10-01T08:49:08.413Z,1.67
2022-10-01T08:52:22.648Z,2.15
2022-10-01T08:55:36.317Z,2.30
2022-10-01T08:58:42.775Z,2.47
2022-10-01T09:01:44.438Z,1.88
2022-10-01T09:04:47.985Z,1.63
2022-10-01T09:08:01.548Z,1.63
2022-10-01T09:14:37.426Z,1.63
2022-10-01T09:17:57.646Z,1.30
2022-10-01T09:20:59.675Z,1.70
2022-10-01T09:24:22.696Z,1.33
2022-10-01T09:27:27.725Z,1.80
2022-10-01T09:30:31.776Z,0.90
2022-10-01T09:33:36.820Z,2.15
2022-10-01T09:36:44.424Z,1.40
2022-10-01T09:40:05.104Z,1.30
2022-10-01T09:43:08.192Z,1.05
2022-10-01T09:46:15.117Z,2.13
2022-10-01T09:49:39.495Z,1.08
2022-10-01T09:52:41.979Z,1.25
2022-10-01T09:55:49.556Z,1.05
2022-10-01T09:58:55.295Z,0.85
2022-10-01T10:01:59.271Z,1.40
2022-10-01T10:05:13.169Z,0.77
2022-10-01T10:08:30.524Z,1.15
2022-10-01T10:11:33.763Z,1.00
2022-10-01T10:14:37.582Z,1.20
2022-10-01T10:17:43.962Z,1.27
2022-10-01T10:20:51.650Z,1.02
2022-10-01T10:23:56.025Z,1.30
2022-10-01T10:26:59.691Z,1.13
2022-10-01T10:30:04.520Z,1.35
2022-10-01T10:33:08.108Z,0.88
2022-10-01T10:36:14.683Z,1.15
2022-10-01T10:39:29.311Z,1.88
2022-10-01T10:42:31.084Z,1.27
2022-10-01T10:45:37.373Z,1.52
2022-10-01T10:48:45.329Z,1.85
2022-10-01T10:51:55.310Z,1.00
2022-10-01T10:54:59.265Z,1.85
2022-10-01T10:58:12.046Z,1.13
2022-10-01T11:01:20.169Z,1.42
2022-10-01T11:04:43.741Z,1.23
2022-10-01T11:07:47.700Z,0.63
2022-10-01T11:11:00.322Z,0.50
2022-10-01T11:14:23.633Z,0.70
2022-10-01T11:20:42.625Z,1.48
2022-10-01T11:24:22.313Z,0.80
2022-10-01T11:27:27.242Z,1.00
2022-10-01T11:30:43.888Z,1.08
2022-10-01T11:33:57.891Z,1.08
2022-10-01T11:37:10.669Z,1.23
2022-10-01T11:40:24.870Z,2.08
2022-10-01T11:43:32.280Z,2.30
2022-10-01T11:46:54.168Z,3.75
2022-10-01T11:50:03.133Z,2.28
2022-10-01T11:53:12.556Z,3.42
2022-10-01T11:56:41.171Z,1.55
2022-10-01T11:59:50.125Z,4.35
2022-10-01T12:02:57.776Z,3.03
2022-10-01T12:05:59.706Z,4.47
2022-10-01T12:09:29.730Z,3.10
2022-10-01T12:12:37.007Z,3.35
2022-10-01T12:16:01.899Z,3.08
2022-10-01T12:19:13.170Z,3.03
2022-10-01T12:22:24.500Z,3.17
2022-10-01T12:25:34.677Z,3.05
2022-10-01T12:28:44.899Z,5.85
2022-10-01T12:32:13.610Z,3.67
2022-10-01T12:35:27.456Z,7.40
2022-10-01T12:38:45.682Z,1.92
2022-10-01T12:42:11.335Z,2.85
2022-10-01T12:45:29.073Z,2.83
2022-10-01T12:49:02.674Z,2.28
2022-10-01T12:52:13.013Z,1.65
2022-10-01T12:55:49.911Z,2.15
2022-10-01T12:59:06.443Z,8.23
2022-10-01T13:02:34.386Z,3.38
2022-10-01T13:05:42.132Z,4.20
2022-10-01T13:09:01.158Z,8.40
2022-10-01T13:12:13.132Z,2.28
2022-10-01T13:15:20.942Z,2.35
2022-10-01T13:18:28.934Z,4.30
2022-10-01T13:22:01.592Z,3.83
2022-10-01T13:25:41.050Z,3.78
2022-10-01T13:28:54.623Z,2.95
2022-10-01T13:31:57.840Z,4.93
2022-10-01T13:38:15.114Z,3.17
2022-10-01T13:41:21.438Z,6.73
2022-10-01T13:44:34.728Z,3.15
2022-10-01T13:47:40.944Z,5.50
2022-10-01T13:51:06.522Z,8.18
2022-10-01T13:54:20.464Z,3.22
2022-10-01T13:57:39.046Z,4.45
2022-10-01T14:00:56.812Z,9.93
2022-10-01T14:04:14.359Z,5.18
2022-10-01T14:07:23.564Z,2.85
2022-10-01T14:10:36.316Z,5.40
2022-10-01T14:14:04.485Z,3.90
2022-10-01T14:17:08.778Z,5.05
2022-10-01T14:20:18.887Z,3.05
2022-10-01T14:23:33.016Z,2.20
2022-10-01T14:27:16.598Z,2.42
2022-10-01T14:30:23.205Z,3.65
2022-10-01T14:33:35.111Z,5.80
2022-10-01T14:36:43.602Z,2.60
2022-10-01T14:39:45.869Z,1.98
2022-10-01T14:43:01.785Z,3.75
2022-10-01T14:46:06.019Z,8.43
2022-10-01T14:49:26.060Z,6.20
2022-10-01T14:52:32.523Z,3.97
2022-10-01T14:55:35.028Z,3.45
2022-10-01T14:58:43.827Z,2.45
2022-10-01T15:02:00.493Z,4.97
2022-10-01T15:05:02.175Z,4.97
2022-10-01T15:08:40.859Z,8.77
2022-10-01T15:11:44.606Z,4.38
2022-10-01T15:14:47.335Z,2.63
2022-10-01T15:17:49.265Z,3.47
2022-10-01T15:21:00.165Z,5.60
2022-10-01T15:24:04.347Z,3.10
2022-10-01T15:27:07.117Z,3.95
2022-10-01T15:30:14.914Z,3.30
2022-10-01T15:33:28.873Z,3.17
2022-10-01T15:36:31.371Z,2.85
2022-10-01T15:39:37.483Z,5.53
2022-10-01T15:42:40.394Z,2.78
2022-10-01T15:48:44.585Z,3.00
2022-10-01T15:52:18.788Z,3.57
2022-10-01T15:55:27.993Z,2.95
2022-10-01T15:58:32.417Z,2.90
2022-10-01T16:01:39.709Z,2.13
2022-10-01T16:04:41.534Z,3.10
2022-10-01T16:07:48.073Z,1.90
2022-10-01T16:11:15.952Z,4.28
2022-10-01T16:14:22.166Z,4.13
2022-10-01T16:17:35.383Z,5.18
2022-10-01T16:23:40.340Z,6.03
2022-10-01T16:26:43.174Z,6.53
2022-10-01T16:30:05.468Z,4.63
2022-10-01T16:33:11.424Z,15.87
2022-10-01T16:36:24.204Z,24.85
2022-10-01T16:39:25.978Z,18.35
2022-10-01T16:42:27.669Z,22.05
2022-10-01T16:45:36.669Z,34.08
2022-10-01T16:48:38.455Z,90.95
2022-10-01T16:51:42.165Z,99.32
2022-10-01T16:54:45.063Z,9.75
2022-10-01T16:57:46.875Z,9.95
2022-10-01T17:00:48.591Z,8.82
2022-10-01T17:03:50.209Z,6.68
2022-10-01T17:06:53.759Z,7.72
2022-10-01T17:09:55.515Z,10.25
2022-10-01T17:12:59.410Z,4.90
2022-10-01T17:16:01.475Z,5.32
2022-10-01T17:19:03.092Z,7.47
2022-10-01T17:22:04.928Z,38.78
2022-10-01T17:25:08.560Z,19.45
2022-10-01T17:28:17.379Z,56.45
2022-10-01T17:31:21.003Z,38.97
2022-10-01T17:34:25.388Z,30.08
2022-10-01T17:37:29.085Z,25.92
2022-10-01T17:40:31.349Z,19.98
2022-10-01T17:43:33.737Z,12.10
2022-10-01T17:46:35.834Z,25.02
2022-10-01T17:49:37.821Z,56.80
2022-10-01T17:52:39.579Z,14.50
2022-10-01T17:55:42.619Z,11.30
2022-10-01T17:58:46.179Z,9.60
2022-10-01T18:01:48.745Z,9.10
2022-10-01T18:04:52.025Z,12.70
2022-10-01T18:07:53.784Z,13.73
2022-10-01T18:11:10.302Z,12.52
2022-10-01T18:14:12.236Z,17.13
2022-10-01T18:17:16.516Z,17.02
2022-10-01T18:20:22.775Z,18.90
2022-10-01T18:23:24.559Z,22.63
2022-10-01T18:26:26.765Z,23.55
2022-10-01T18:29:30.954Z,16.53
2022-10-01T18:32:42.210Z,16.90
2022-10-01T18:35:44.818Z,18.10
2022-10-01T18:38:50.908Z,15.88
2022-10-01T18:41:53.296Z,14.57
2022-10-01T18:45:01.267Z,11.77
2022-10-01T18:48:10.678Z,16.13
2022-10-01T18:51:50.896Z,21.75
2022-10-01T18:55:13.654Z,14.18
2022-10-01T18:58:55.791Z,19.00
2022-10-01T19:02:38.135Z,23.70
2022-10-01T19:05:58.270Z,25.80
2022-10-01T19:09:17.086Z,29.98
2022-10-01T19:12:46.872Z,42.92
2022-10-01T19:16:05.105Z,47.00
2022-10-01T19:19:35.398Z,86.75
2022-10-01T19:23:18.604Z,135.98
2022-10-01T19:26:38.715Z,145.53
2022-10-01T19:29:55.155Z,127.82
2022-10-01T19:33:02.133Z,126.95
2022-10-01T19:36:06.770Z,135.32
2022-10-01T19:39:16.217Z,127.65
2022-10-01T19:42:30.716Z,102.25
2022-10-01T19:45:58.753Z,124.07
2022-10-01T19:49:09.493Z,126.55
2022-10-01T19:52:18.285Z,103.78
2022-10-01T19:55:22.206Z,121.93
2022-10-01T19:58:24.674Z,97.13
2022-10-01T20:01:36.662Z,79.57
2022-10-01T20:05:06.212Z,49.58
2022-10-01T20:08:36.355Z,60.40
2022-10-01T20:12:11.210Z,52.78
2022-10-01T20:15:45.864Z,40.60
2022-10-01T20:19:00.453Z,239.93
2022-10-01T20:22:23.663Z,81.38
2022-10-01T20:25:33.808Z,53.05
2022-10-01T20:28:52.227Z,40.22
2022-10-01T20:32:20.353Z,38.47
2022-10-01T20:35:31.640Z,30.58
2022-10-01T20:38:57.428Z,80.93
2022-10-01T20:41:59.974Z,31.13
2022-10-01T20:45:03.854Z,35.13
2022-10-01T20:48:16.641Z,34.90
2022-10-01T20:51:34.940Z,44.38
2022-10-01T20:54:43.401Z,46.40
2022-10-01T20:57:50.550Z,38.10
2022-10-01T21:01:01.899Z,56.97
2022-10-01T21:04:13.325Z,29.02
2022-10-01T21:08:00.711Z,33.42
2022-10-01T21:11:09.473Z,40.53
2022-10-01T21:14:29.416Z,28.65
2022-10-01T21:17:57.519Z,65.22
2022-10-01T21:21:17.097Z,35.22
2022-10-01T21:25:00.478Z,26.23
2022-10-01T21:28:11.204Z,53.17
2022-10-01T21:31:53.315Z,42.47
2022-10-01T21:35:22.107Z,34.92
2022-10-01T21:38:30.278Z,52.28
2022-10-01T21:41:53.900Z,34.28
2022-10-01T21:45:10.366Z,32.50
2022-10-01T21:48:19.733Z,33.50
2022-10-01T21:51:36.999Z,24.52
2022-10-01T21:54:51.433Z,20.55
2022-10-01T21:58:29.441Z,19.02
2022-10-01T22:01:44.748Z,22.73
2022-10-01T22:05:02.383Z,21.02
2022-10-01T22:08:25.500Z,27.30
2022-10-01T22:11:32.293Z,18.15
2022-10-01T22:14:34.274Z,18.92
2022-10-01T22:17:39.308Z,19.40
2022-10-01T22:20:43.837Z,21.67
2022-10-01T22:23:50.767Z,23.02
2022-10-01T22:27:05.422Z,20.75
2022-10-01T22:30:11.645Z,21.05
2022-10-01T22:33:18.374Z,25.00
2022-10-01T22:36:35.964Z,25.73
2022-10-01T22:39:43.706Z,29.27
2022-10-01T22:42:59.302Z,28.30
2022-10-01T22:46:22.774Z,43.15
2022-10-01T22:49:33.332Z,34.15
2022-10-01T22:52:47.147Z,24.75
2022-10-01T22:55:58.086Z,22.77
2022-10-01T22:59:31.944Z,22.33
2022-10-01T23:02:46.817Z,19.92
2022-10-01T23:06:06.378Z,21.15
2022-10-01T23:09:23.044Z,27.80
2022-10-01T23:12:53.786Z,32.28
2022-10-01T23:16:13.345Z,22.38
2022-10-01T23:19:36.225Z,27.58
2022-10-01T23:23:01.311Z,28.30
2022-10-01T23:26:02.868Z,19.52
2022-10-01T23:29:26.012Z,16.33
2022-10-01T23:32:46.106Z,39.00
2022-10-01T23:36:09.288Z,30.88
2022-10-01T23:39:13.675Z,19.67
2022-10-01T23:42:36.200Z,16.77
2022-10-01T23:45:43.334Z,21.67
2022-10-01T23:48:54.083Z,19.45
2022-10-01T23:52:00.964Z,19.60
2022-10-01T23:55:32.695Z,26.65
2022-10-01T23:58:46.078Z,18.50
